Huvudsida
METAR-TAF:

METAR-TAF

Flygplatser :

Decimomannu, Italien

latitud: 39-21N, longitud: 008-58E, höjd: 29 m

Aktuellt väderrapport

Denna rapport gjordes för 55 minuter sedan, klockan 13:55 UTC
Vind 15 kt från syd/sydost
Temperatur 34°C
Fuktighet 53%
Tryck 1018 hPa
Sikt 10 km eller mer
Inga moln under 1 500 m eller inga cumulonimbus

METAR: LIED 261355Z 15015KT CAVOK 34/23 Q1018 RMK SKC VIS MIN 9999 WIND THR35 15014KT WIND THR17 /////KT BLU

Tid: 16:50 (14:50 UTC)

Väderprognos

Denna rapport gjordes för 12 timmar och 50 minuter sedan, klockan 02:00 UTC
Prognos gäller från 26 kl. 03 UTC till 26 kl. 12 UTC
Vind 5 kt från ost/nordost
Sikt 10 km eller mer
Inga moln under 1 500 m eller inga cumulonimbus
Blir
från 26 kl. 07 UTC till 26 kl. 09 UTC
Vind 8 kt från sydost

TAF: LIED 260200Z 2603/2612 06005KT CAVOK BECMG 2607/2609 13008KT

Aktuella väderrapporter och prognoser från 4000 flygplatser (METAR- och TAF-rapporter).

De tillgängliga stationerna syns som gula och röda prickar på kartan.

För musen över prickarna för att se namnen på stationerna.

Klicka sedan för att få väderrapporter och prognoser.

För att ändra kartan: Klicka på de gröna knapparna med ett svart kors på för att zooma in; den gröna knappen med ett streck på för att zooma ut; eller på de gröna pilarna för angränsande kartor.


METAR-TAF: